Terminal Aerodrome Forecast
Issued by NWS

Home | Current Version | Previous Version | Text Only | Print | Product List | Glossary On
Versions: 1 2 3 4 5 6 7 8 9 10 11 12 13 14
466
FTUS43 KOAX 200526
TAFSNY
TAF
KSNY 200526Z 2006/2106 14025G35KT P6SM SCT250
     FM201000 14020G30KT P6SM BKN060
     FM201300 14015KT 4SM -RA OVC025
     FM201600 12015G25KT 1SM -SN OVC008
     FM201800 12018G28KT 5SM -RASN OVC012=

USA.gov is the U.S. government's official web portal to all federal, state and local government web resources and services.